METAR Data
IDs: Format: Raw Decoded Include TAF

Data at: 2001 UTC 25 Oct 2021

ETWM 251920Z AUTO 18004KT //// // ////// 10/09 Q1016 ///